Oso, Washington
Current Conditions -  °F | °C
As of 9:15 AM on Sunday 23 Nov 2014 (Local Time) from KAWO Reporting Station
Overcast Overcast  
Wind Chill: 43°   Ceiling: 4300
Heat Index: 46°   Visibility: 10mi
Dew Point: 43°   Wind: 7mph
Humidity: 87%   Direction: 180°S
Pressure: 30.09"   Gusts: NA
Location:  48.2067°N, 121.947°W
Report Text: KAWO 231715Z AUTO 18006KT 10SM FEW013 BKN043 OVC090 08/06 A3009 RMK AO1
Loading
Personal Weather Stations






























Interactive Weather Map New forecast layout! Learn more

10-Day Weather Forecast

Advertisements
Track Severe Weather on mobile